sensor_id;sensor_type;location;lat;lon;timestamp;temperature;humidity
21944;DHT22;11136;48.778;9.126;2023-03-01T00:00:45;2.10;81.90
21944;DHT22;11136;48.778;9.126;2023-03-01T00:03:12;2.10;81.90
21944;DHT22;11136;48.778;9.126;2023-03-01T00:05:44;2.20;82.10
21944;DHT22;11136;48.778;9.126;2023-03-01T00:08:09;2.00;82.10
21944;DHT22;11136;48.778;9.126;2023-03-01T00:10:35;2.00;82.10
21944;DHT22;11136;48.778;9.126;2023-03-01T00:13:01;2.00;82.20
21944;DHT22;11136;48.778;9.126;2023-03-01T00:15:26;2.00;82.30
21944;DHT22;11136;48.778;9.126;2023-03-01T00:17:52;1.90;82.30
21944;DHT22;11136;48.778;9.126;2023-03-01T00:20:18;2.00;82.50
21944;DHT22;11136;48.778;9.126;2023-03-01T00:22:43;1.90;82.60
21944;DHT22;11136;48.778;9.126;2023-03-01T00:25:09;1.90;82.80
21944;DHT22;11136;48.778;9.126;2023-03-01T00:27:35;2.00;82.90
21944;DHT22;11136;48.778;9.126;2023-03-01T00:30:00;1.80;83.00
21944;DHT22;11136;48.778;9.126;2023-03-01T00:32:26;1.80;83.10
21944;DHT22;11136;48.778;9.126;2023-03-01T00:34:51;1.80;83.10
21944;DHT22;11136;48.778;9.126;2023-03-01T00:37:21;1.80;83.30
21944;DHT22;11136;48.778;9.126;2023-03-01T00:39:47;1.80;83.20
21944;DHT22;11136;48.778;9.126;2023-03-01T00:42:13;1.70;83.20
21944;DHT22;11136;48.778;9.126;2023-03-01T00:44:38;1.70;83.40
21944;DHT22;11136;48.778;9.126;2023-03-01T00:47:04;1.70;83.40
21944;DHT22;11136;48.778;9.126;2023-03-01T00:49:30;1.70;83.50
21944;DHT22;11136;48.778;9.126;2023-03-01T00:51:55;1.70;83.60
21944;DHT22;11136;48.778;9.126;2023-03-01T00:54:21;1.70;83.60
21944;DHT22;11136;48.778;9.126;2023-03-01T00:56:46;1.80;83.80
21944;DHT22;11136;48.778;9.126;2023-03-01T00:59:12;1.60;83.70
21944;DHT22;11136;48.778;9.126;2023-03-01T01:01:37;1.60;83.80
21944;DHT22;11136;48.778;9.126;2023-03-01T01:04:06;1.60;83.90
21944;DHT22;11136;48.778;9.126;2023-03-01T01:06:37;1.60;84.00
21944;DHT22;11136;48.778;9.126;2023-03-01T01:09:06;1.60;84.00
21944;DHT22;11136;48.778;9.126;2023-03-01T01:11:32;1.70;84.10
21944;DHT22;11136;48.778;9.126;2023-03-01T01:13:59;1.50;84.00
21944;DHT22;11136;48.778;9.126;2023-03-01T01:16:26;1.70;84.20
21944;DHT22;11136;48.778;9.126;2023-03-01T01:18:52;1.50;84.20
21944;DHT22;11136;48.778;9.126;2023-03-01T01:21:20;1.50;84.30
21944;DHT22;11136;48.778;9.126;2023-03-01T01:23:46;1.40;84.30
21944;DHT22;11136;48.778;9.126;2023-03-01T01:26:19;1.40;84.30
21944;DHT22;11136;48.778;9.126;2023-03-01T01:28:46;1.40;84.40
21944;DHT22;11136;48.778;9.126;2023-03-01T01:31:12;1.40;84.40
21944;DHT22;11136;48.778;9.126;2023-03-01T01:33:38;1.50;84.60
21944;DHT22;11136;48.778;9.126;2023-03-01T01:36:05;1.30;84.50
21944;DHT22;11136;48.778;9.126;2023-03-01T01:38:30;1.30;84.60
21944;DHT22;11136;48.778;9.126;2023-03-01T01:40:56;1.30;84.70
21944;DHT22;11136;48.778;9.126;2023-03-01T01:43:25;1.30;84.70
21944;DHT22;11136;48.778;9.126;2023-03-01T01:45:55;1.30;84.80
21944;DHT22;11136;48.778;9.126;2023-03-01T01:48:23;1.30;84.80
21944;DHT22;11136;48.778;9.126;2023-03-01T01:50:56;1.20;84.80
21944;DHT22;11136;48.778;9.126;2023-03-01T01:53:25;1.20;85.00
21944;DHT22;11136;48.778;9.126;2023-03-01T01:55:58;1.20;85.70
21944;DHT22;11136;48.778;9.126;2023-03-01T01:58:28;1.20;85.20
21944;DHT22;11136;48.778;9.126;2023-03-01T02:00:54;1.20;85.20
21944;DHT22;11136;48.778;9.126;2023-03-01T02:03:24;1.20;85.30
21944;DHT22;11136;48.778;9.126;2023-03-01T02:08:57;1.20;85.50
21944;DHT22;11136;48.778;9.126;2023-03-01T02:11:23;1.10;85.70
21944;DHT22;11136;48.778;9.126;2023-03-01T02:13:49;1.20;85.90
21944;DHT22;11136;48.778;9.126;2023-03-01T02:16:16;1.20;86.10
21944;DHT22;11136;48.778;9.126;2023-03-01T02:18:43;1.20;86.40
21944;DHT22;11136;48.778;9.126;2023-03-01T02:21:54;1.20;86.50
21944;DHT22;11136;48.778;9.126;2023-03-01T02:24:45;1.30;86.90
21944;DHT22;11136;48.778;9.126;2023-03-01T02:27:13;1.30;86.90
21944;DHT22;11136;48.778;9.126;2023-03-01T02:29:39;1.30;86.80
21944;DHT22;11136;48.778;9.126;2023-03-01T02:32:05;1.30;87.00
21944;DHT22;11136;48.778;9.126;2023-03-01T02:34:31;1.30;87.20
21944;DHT22;11136;48.778;9.126;2023-03-01T02:37:01;1.40;87.50
21944;DHT22;11136;48.778;9.126;2023-03-01T02:39:37;1.40;87.60
21944;DHT22;11136;48.778;9.126;2023-03-01T02:42:11;1.50;87.90
21944;DHT22;11136;48.778;9.126;2023-03-01T02:44:38;1.50;88.00
21944;DHT22;11136;48.778;9.126;2023-03-01T02:47:04;1.60;88.00
21944;DHT22;11136;48.778;9.126;2023-03-01T02:49:33;1.60;88.10
21944;DHT22;11136;48.778;9.126;2023-03-01T02:57:34;1.70;88.40
21944;DHT22;11136;48.778;9.126;2023-03-01T03:00:03;1.70;88.40
21944;DHT22;11136;48.778;9.126;2023-03-01T03:02:33;1.70;88.60
21944;DHT22;11136;48.778;9.126;2023-03-01T03:05:23;1.70;88.70
21944;DHT22;11136;48.778;9.126;2023-03-01T03:07:49;1.70;88.90
21944;DHT22;11136;48.778;9.126;2023-03-01T03:12:56;1.80;89.10
21944;DHT22;11136;48.778;9.126;2023-03-01T03:15:22;1.90;89.10
21944;DHT22;11136;48.778;9.126;2023-03-01T03:17:49;1.90;89.20
21944;DHT22;11136;48.778;9.126;2023-03-01T03:20:17;1.90;89.20
21944;DHT22;11136;48.778;9.126;2023-03-01T03:22:48;1.90;89.20
21944;DHT22;11136;48.778;9.126;2023-03-01T03:25:15;1.90;89.30
21944;DHT22;11136;48.778;9.126;2023-03-01T03:27:42;1.90;89.40
21944;DHT22;11136;48.778;9.126;2023-03-01T03:30:10;2.10;89.50
21944;DHT22;11136;48.778;9.126;2023-03-01T03:32:38;1.90;89.50
21944;DHT22;11136;48.778;9.126;2023-03-01T03:35:05;1.90;89.60
21944;DHT22;11136;48.778;9.126;2023-03-01T03:37:43;2.00;89.70
21944;DHT22;11136;48.778;9.126;2023-03-01T03:40:35;2.00;89.70
21944;DHT22;11136;48.778;9.126;2023-03-01T03:43:07;2.00;89.70
21944;DHT22;11136;48.778;9.126;2023-03-01T03:45:34;2.00;89.80
21944;DHT22;11136;48.778;9.126;2023-03-01T03:48:01;2.00;89.80
21944;DHT22;11136;48.778;9.126;2023-03-01T03:50:26;2.00;90.20
21944;DHT22;11136;48.778;9.126;2023-03-01T03:52:52;2.10;90.30
21944;DHT22;11136;48.778;9.126;2023-03-01T03:55:18;2.00;90.00
21944;DHT22;11136;48.778;9.126;2023-03-01T03:57:45;2.10;90.00
21944;DHT22;11136;48.778;9.126;2023-03-01T04:00:18;2.10;90.00
21944;DHT22;11136;48.778;9.126;2023-03-01T04:02:45;2.10;90.00
21944;DHT22;11136;48.778;9.126;2023-03-01T04:05:13;2.10;90.00
21944;DHT22;11136;48.778;9.126;2023-03-01T04:07:40;2.10;90.00
21944;DHT22;11136;48.778;9.126;2023-03-01T04:10:11;2.10;90.00
21944;DHT22;11136;48.778;9.126;2023-03-01T04:12:37;2.10;90.00
21944;DHT22;11136;48.778;9.126;2023-03-01T04:15:07;2.20;90.10
21944;DHT22;11136;48.778;9.126;2023-03-01T04:17:45;2.20;90.10
21944;DHT22;11136;48.778;9.126;2023-03-01T04:20:15;2.20;90.10
21944;DHT22;11136;48.778;9.126;2023-03-01T04:22:52;2.20;90.10
21944;DHT22;11136;48.778;9.126;2023-03-01T04:25:22;2.20;90.10
21944;DHT22;11136;48.778;9.126;2023-03-01T04:27:48;2.20;90.10
21944;DHT22;11136;48.778;9.126;2023-03-01T04:30:14;2.20;90.10
21944;DHT22;11136;48.778;9.126;2023-03-01T04:32:40;2.20;90.10
21944;DHT22;11136;48.778;9.126;2023-03-01T04:35:06;2.20;90.20
21944;DHT22;11136;48.778;9.126;2023-03-01T04:37:31;2.20;90.20
21944;DHT22;11136;48.778;9.126;2023-03-01T04:39:57;2.20;90.20
21944;DHT22;11136;48.778;9.126;2023-03-01T04:42:23;2.20;90.20
21944;DHT22;11136;48.778;9.126;2023-03-01T04:44:48;2.20;90.50
21944;DHT22;11136;48.778;9.126;2023-03-01T04:47:16;2.20;90.20
21944;DHT22;11136;48.778;9.126;2023-03-01T04:49:42;2.30;90.30
21944;DHT22;11136;48.778;9.126;2023-03-01T04:52:08;2.30;90.30
21944;DHT22;11136;48.778;9.126;2023-03-01T04:54:35;2.30;90.30
21944;DHT22;11136;48.778;9.126;2023-03-01T04:57:02;2.30;90.30
21944;DHT22;11136;48.778;9.126;2023-03-01T04:59:28;2.30;90.30
21944;DHT22;11136;48.778;9.126;2023-03-01T05:01:55;2.30;90.30
21944;DHT22;11136;48.778;9.126;2023-03-01T05:04:21;2.30;90.30
21944;DHT22;11136;48.778;9.126;2023-03-01T05:06:47;2.30;90.30
21944;DHT22;11136;48.778;9.126;2023-03-01T05:09:13;2.30;90.40
21944;DHT22;11136;48.778;9.126;2023-03-01T05:11:38;2.30;90.40
21944;DHT22;11136;48.778;9.126;2023-03-01T05:14:08;2.30;90.40
21944;DHT22;11136;48.778;9.126;2023-03-01T05:16:34;2.30;90.40
21944;DHT22;11136;48.778;9.126;2023-03-01T05:19:02;2.30;90.40
21944;DHT22;11136;48.778;9.126;2023-03-01T05:21:37;2.30;90.40
21944;DHT22;11136;48.778;9.126;2023-03-01T05:24:23;2.30;90.40
21944;DHT22;11136;48.778;9.126;2023-03-01T05:26:49;2.30;90.40
21944;DHT22;11136;48.778;9.126;2023-03-01T05:29:17;2.40;90.40
21944;DHT22;11136;48.778;9.126;2023-03-01T05:31:43;2.30;90.40
21944;DHT22;11136;48.778;9.126;2023-03-01T05:34:08;2.40;90.50
21944;DHT22;11136;48.778;9.126;2023-03-01T05:36:34;2.40;90.50
21944;DHT22;11136;48.778;9.126;2023-03-01T05:39:00;2.40;90.50
21944;DHT22;11136;48.778;9.126;2023-03-01T05:41:26;2.40;90.50
21944;DHT22;11136;48.778;9.126;2023-03-01T05:43:51;2.40;90.50
21944;DHT22;11136;48.778;9.126;2023-03-01T05:46:17;2.40;90.50
21944;DHT22;11136;48.778;9.126;2023-03-01T05:48:42;2.40;90.50
21944;DHT22;11136;48.778;9.126;2023-03-01T05:51:09;2.40;90.60
21944;DHT22;11136;48.778;9.126;2023-03-01T05:53:34;2.40;90.60
21944;DHT22;11136;48.778;9.126;2023-03-01T05:56:03;2.40;90.60
21944;DHT22;11136;48.778;9.126;2023-03-01T05:58:29;2.40;90.60
21944;DHT22;11136;48.778;9.126;2023-03-01T06:00:54;2.40;90.60
21944;DHT22;11136;48.778;9.126;2023-03-01T06:03:20;2.40;90.60
21944;DHT22;11136;48.778;9.126;2023-03-01T06:05:45;2.40;90.70
21944;DHT22;11136;48.778;9.126;2023-03-01T06:08:11;2.50;90.70
21944;DHT22;11136;48.778;9.126;2023-03-01T06:10:37;2.40;90.70
21944;DHT22;11136;48.778;9.126;2023-03-01T06:13:03;2.40;90.70
21944;DHT22;11136;48.778;9.126;2023-03-01T06:15:29;2.40;90.70
21944;DHT22;11136;48.778;9.126;2023-03-01T06:17:56;2.50;90.80
21944;DHT22;11136;48.778;9.126;2023-03-01T06:20:23;2.50;90.80
21944;DHT22;11136;48.778;9.126;2023-03-01T06:22:51;2.50;90.80
21944;DHT22;11136;48.778;9.126;2023-03-01T06:25:19;2.70;90.80
21944;DHT22;11136;48.778;9.126;2023-03-01T06:27:46;2.50;90.80
21944;DHT22;11136;48.778;9.126;2023-03-01T06:30:13;2.60;90.80
21944;DHT22;11136;48.778;9.126;2023-03-01T06:32:39;2.50;90.80
21944;DHT22;11136;48.778;9.126;2023-03-01T06:35:10;2.50;90.80
21944;DHT22;11136;48.778;9.126;2023-03-01T06:37:36;2.50;90.80
21944;DHT22;11136;48.778;9.126;2023-03-01T06:40:03;2.50;90.80
21944;DHT22;11136;48.778;9.126;2023-03-01T06:42:37;2.50;90.80
21944;DHT22;11136;48.778;9.126;2023-03-01T06:45:05;2.50;90.80
21944;DHT22;11136;48.778;9.126;2023-03-01T06:47:31;2.50;90.80
21944;DHT22;11136;48.778;9.126;2023-03-01T06:49:59;2.50;90.90
21944;DHT22;11136;48.778;9.126;2023-03-01T06:52:24;2.60;90.90
21944;DHT22;11136;48.778;9.126;2023-03-01T06:54:50;2.70;91.00
21944;DHT22;11136;48.778;9.126;2023-03-01T06:57:16;2.50;90.90
21944;DHT22;11136;48.778;9.126;2023-03-01T06:59:41;2.60;91.00
21944;DHT22;11136;48.778;9.126;2023-03-01T07:02:10;2.60;91.00
21944;DHT22;11136;48.778;9.126;2023-03-01T07:04:36;2.60;91.00
21944;DHT22;11136;48.778;9.126;2023-03-01T07:07:01;2.60;91.00
21944;DHT22;11136;48.778;9.126;2023-03-01T07:09:27;2.60;91.00
21944;DHT22;11136;48.778;9.126;2023-03-01T07:11:52;2.60;91.00
21944;DHT22;11136;48.778;9.126;2023-03-01T07:14:18;2.70;91.10
21944;DHT22;11136;48.778;9.126;2023-03-01T07:16:45;2.70;91.10
21944;DHT22;11136;48.778;9.126;2023-03-01T07:19:11;2.70;91.10
21944;DHT22;11136;48.778;9.126;2023-03-01T07:21:36;2.70;91.10
21944;DHT22;11136;48.778;9.126;2023-03-01T07:24:05;2.70;91.10
21944;DHT22;11136;48.778;9.126;2023-03-01T07:26:31;2.70;91.10
21944;DHT22;11136;48.778;9.126;2023-03-01T07:28:59;2.70;91.10
21944;DHT22;11136;48.778;9.126;2023-03-01T07:31:25;2.70;91.10
21944;DHT22;11136;48.778;9.126;2023-03-01T07:33:53;2.70;91.10
21944;DHT22;11136;48.778;9.126;2023-03-01T07:36:19;2.70;91.10
21944;DHT22;11136;48.778;9.126;2023-03-01T07:38:44;2.70;91.20
21944;DHT22;11136;48.778;9.126;2023-03-01T07:41:10;2.70;91.20
21944;DHT22;11136;48.778;9.126;2023-03-01T07:43:35;2.80;91.20
21944;DHT22;11136;48.778;9.126;2023-03-01T07:46:01;2.80;91.20
21944;DHT22;11136;48.778;9.126;2023-03-01T07:48:28;2.90;91.30
21944;DHT22;11136;48.778;9.126;2023-03-01T07:50:54;3.10;91.40
21944;DHT22;11136;48.778;9.126;2023-03-01T07:53:20;3.00;91.30
21944;DHT22;11136;48.778;9.126;2023-03-01T07:55:45;3.30;91.40
21944;DHT22;11136;48.778;9.126;2023-03-01T07:58:11;3.10;91.30
21944;DHT22;11136;48.778;9.126;2023-03-01T08:00:36;3.20;91.30
21944;DHT22;11136;48.778;9.126;2023-03-01T08:03:02;3.40;91.40
21944;DHT22;11136;48.778;9.126;2023-03-01T08:05:28;3.30;91.30
21944;DHT22;11136;48.778;9.126;2023-03-01T08:07:54;3.40;91.40
21944;DHT22;11136;48.778;9.126;2023-03-01T08:10:20;3.40;91.30
21944;DHT22;11136;48.778;9.126;2023-03-01T08:12:45;3.50;91.30
21944;DHT22;11136;48.778;9.126;2023-03-01T08:15:11;3.60;91.30
21944;DHT22;11136;48.778;9.126;2023-03-01T08:17:36;3.60;91.30
21944;DHT22;11136;48.778;9.126;2023-03-01T08:20:02;3.70;91.20
21944;DHT22;11136;48.778;9.126;2023-03-01T08:22:29;3.80;91.30
21944;DHT22;11136;48.778;9.126;2023-03-01T08:24:55;4.00;91.40
21944;DHT22;11136;48.778;9.126;2023-03-01T08:27:21;4.20;91.40
21944;DHT22;11136;48.778;9.126;2023-03-01T08:29:46;4.50;91.40
21944;DHT22;11136;48.778;9.126;2023-03-01T08:32:12;4.80;91.30
21944;DHT22;11136;48.778;9.126;2023-03-01T08:34:38;5.10;91.30
21944;DHT22;11136;48.778;9.126;2023-03-01T08:37:03;5.40;91.30
21944;DHT22;11136;48.778;9.126;2023-03-01T08:39:29;5.70;91.30
21944;DHT22;11136;48.778;9.126;2023-03-01T08:41:54;6.00;91.30
21944;DHT22;11136;48.778;9.126;2023-03-01T08:44:20;6.20;91.20
21944;DHT22;11136;48.778;9.126;2023-03-01T08:46:46;6.60;91.00
21944;DHT22;11136;48.778;9.126;2023-03-01T08:49:14;6.70;90.70
21944;DHT22;11136;48.778;9.126;2023-03-01T08:51:41;6.80;90.80
21944;DHT22;11136;48.778;9.126;2023-03-01T08:54:11;7.00;90.30
21944;DHT22;11136;48.778;9.126;2023-03-01T08:56:38;7.10;90.00
21944;DHT22;11136;48.778;9.126;2023-03-01T08:59:04;7.20;90.00
21944;DHT22;11136;48.778;9.126;2023-03-01T09:01:29;7.40;89.80
21944;DHT22;11136;48.778;9.126;2023-03-01T09:03:55;7.50;89.40
21944;DHT22;11136;48.778;9.126;2023-03-01T09:06:23;7.60;88.90
21944;DHT22;11136;48.778;9.126;2023-03-01T09:08:50;7.70;88.50
21944;DHT22;11136;48.778;9.126;2023-03-01T09:11:18;7.80;88.10
21944;DHT22;11136;48.778;9.126;2023-03-01T09:13:45;7.90;87.50
21944;DHT22;11136;48.778;9.126;2023-03-01T09:16:14;8.00;87.00
21944;DHT22;11136;48.778;9.126;2023-03-01T09:18:40;8.10;86.50
21944;DHT22;11136;48.778;9.126;2023-03-01T09:21:14;8.20;86.20
21944;DHT22;11136;48.778;9.126;2023-03-01T09:23:42;8.20;85.40
21944;DHT22;11136;48.778;9.126;2023-03-01T09:26:10;8.30;85.10
21944;DHT22;11136;48.778;9.126;2023-03-01T09:28:38;8.40;84.50
21944;DHT22;11136;48.778;9.126;2023-03-01T09:31:04;8.50;84.10
21944;DHT22;11136;48.778;9.126;2023-03-01T09:33:32;8.50;83.40
21944;DHT22;11136;48.778;9.126;2023-03-01T09:36:03;8.60;83.10
21944;DHT22;11136;48.778;9.126;2023-03-01T09:38:29;8.60;82.70
21944;DHT22;11136;48.778;9.126;2023-03-01T09:40:54;8.60;83.20
21944;DHT22;11136;48.778;9.126;2023-03-01T09:46:07;8.60;82.20
21944;DHT22;11136;48.778;9.126;2023-03-01T09:51:34;8.60;81.20
21944;DHT22;11136;48.778;9.126;2023-03-01T09:54:04;8.60;81.10
21944;DHT22;11136;48.778;9.126;2023-03-01T09:56:36;8.60;81.20
21944;DHT22;11136;48.778;9.126;2023-03-01T09:59:14;8.60;80.90
21944;DHT22;11136;48.778;9.126;2023-03-01T10:01:45;8.30;80.50
21944;DHT22;11136;48.778;9.126;2023-03-01T10:04:42;8.60;80.20
21944;DHT22;11136;48.778;9.126;2023-03-01T10:09:41;8.60;80.10
21944;DHT22;11136;48.778;9.126;2023-03-01T10:12:20;8.60;79.90
21944;DHT22;11136;48.778;9.126;2023-03-01T10:14:54;8.70;79.60
21944;DHT22;11136;48.778;9.126;2023-03-01T10:17:41;8.70;79.60
21944;DHT22;11136;48.778;9.126;2023-03-01T10:20:26;8.70;78.90
21944;DHT22;11136;48.778;9.126;2023-03-01T10:22:53;8.70;78.90
21944;DHT22;11136;48.778;9.126;2023-03-01T10:30:44;8.70;78.00
21944;DHT22;11136;48.778;9.126;2023-03-01T10:33:20;8.70;78.00
21944;DHT22;11136;48.778;9.126;2023-03-01T10:35:47;8.70;77.70
21944;DHT22;11136;48.778;9.126;2023-03-01T10:38:15;8.70;77.70
21944;DHT22;11136;48.778;9.126;2023-03-01T10:41:04;8.80;77.60
21944;DHT22;11136;48.778;9.126;2023-03-01T10:46:33;8.90;77.10
21944;DHT22;11136;48.778;9.126;2023-03-01T10:51:41;8.90;76.90
21944;DHT22;11136;48.778;9.126;2023-03-01T10:54:28;8.90;76.90
21944;DHT22;11136;48.778;9.126;2023-03-01T10:56:59;9.00;76.40
21944;DHT22;11136;48.778;9.126;2023-03-01T10:59:30;9.00;76.50
21944;DHT22;11136;48.778;9.126;2023-03-01T11:04:28;9.10;77.00
21944;DHT22;11136;48.778;9.126;2023-03-01T11:07:00;9.20;77.00
21944;DHT22;11136;48.778;9.126;2023-03-01T11:09:31;9.20;76.50
21944;DHT22;11136;48.778;9.126;2023-03-01T11:12:04;9.30;76.20
21944;DHT22;11136;48.778;9.126;2023-03-01T11:14:38;9.30;76.00
21944;DHT22;11136;48.778;9.126;2023-03-01T11:17:27;9.40;75.90
21944;DHT22;11136;48.778;9.126;2023-03-01T11:22:52;9.50;75.50
21944;DHT22;11136;48.778;9.126;2023-03-01T11:25:24;9.60;75.40
21944;DHT22;11136;48.778;9.126;2023-03-01T11:27:52;9.60;75.20
21944;DHT22;11136;48.778;9.126;2023-03-01T11:30:27;9.50;75.70
21944;DHT22;11136;48.778;9.126;2023-03-01T11:35:57;9.80;74.60
21944;DHT22;11136;48.778;9.126;2023-03-01T11:38:27;9.90;74.70
21944;DHT22;11136;48.778;9.126;2023-03-01T11:40:54;10.00;74.80
21944;DHT22;11136;48.778;9.126;2023-03-01T11:43:26;10.10;74.60
21944;DHT22;11136;48.778;9.126;2023-03-01T11:49:12;10.20;73.90
21944;DHT22;11136;48.778;9.126;2023-03-01T12:14:13;11.00;72.40
21944;DHT22;11136;48.778;9.126;2023-03-01T12:25:44;11.30;71.90
21944;DHT22;11136;48.778;9.126;2023-03-01T12:28:24;11.50;71.90
21944;DHT22;11136;48.778;9.126;2023-03-01T12:37:07;11.70;71.40
21944;DHT22;11136;48.778;9.126;2023-03-01T12:50:56;12.20;69.80
21944;DHT22;11136;48.778;9.126;2023-03-01T12:55:56;12.50;70.00
21944;DHT22;11136;48.778;9.126;2023-03-01T12:58:28;12.70;69.50
21944;DHT22;11136;48.778;9.126;2023-03-01T13:01:34;12.90;69.30
21944;DHT22;11136;48.778;9.126;2023-03-01T13:04:23;13.00;68.40
21944;DHT22;11136;48.778;9.126;2023-03-01T13:07:02;13.20;68.20
21944;DHT22;11136;48.778;9.126;2023-03-01T13:09:38;13.30;67.70
21944;DHT22;11136;48.778;9.126;2023-03-01T13:17:48;13.70;66.80
21944;DHT22;11136;48.778;9.126;2023-03-01T13:20:20;13.80;66.80
21944;DHT22;11136;48.778;9.126;2023-03-01T13:22:47;14.00;66.20
21944;DHT22;11136;48.778;9.126;2023-03-01T13:25:24;14.30;66.40
21944;DHT22;11136;48.778;9.126;2023-03-01T13:27:50;14.50;66.50
21944;DHT22;11136;48.778;9.126;2023-03-01T13:35:54;16.40;66.20
21944;DHT22;11136;48.778;9.126;2023-03-01T13:38:39;17.30;66.40
21944;DHT22;11136;48.778;9.126;2023-03-01T13:41:09;18.20;63.60
21944;DHT22;11136;48.778;9.126;2023-03-01T13:43:37;18.90;63.40
21944;DHT22;11136;48.778;9.126;2023-03-01T13:46:09;19.60;61.10
21944;DHT22;11136;48.778;9.126;2023-03-01T13:48:37;20.20;58.90
21944;DHT22;11136;48.778;9.126;2023-03-01T13:51:10;20.70;57.80
21944;DHT22;11136;48.778;9.126;2023-03-01T13:53:42;21.10;56.10
21944;DHT22;11136;48.778;9.126;2023-03-01T13:56:15;21.40;55.20
21944;DHT22;11136;48.778;9.126;2023-03-01T13:58:55;21.50;53.90
21944;DHT22;11136;48.778;9.126;2023-03-01T14:01:29;21.60;52.80
21944;DHT22;11136;48.778;9.126;2023-03-01T14:03:56;21.50;51.90
21944;DHT22;11136;48.778;9.126;2023-03-01T14:06:28;21.30;51.30
21944;DHT22;11136;48.778;9.126;2023-03-01T14:09:23;21.10;50.80
21944;DHT22;11136;48.778;9.126;2023-03-01T14:12:05;20.90;50.40
21944;DHT22;11136;48.778;9.126;2023-03-01T14:14:41;20.70;50.20
21944;DHT22;11136;48.778;9.126;2023-03-01T14:19:47;20.20;50.20
21944;DHT22;11136;48.778;9.126;2023-03-01T14:24:44;19.70;50.40
21944;DHT22;11136;48.778;9.126;2023-03-01T14:27:12;19.40;50.20
21944;DHT22;11136;48.778;9.126;2023-03-01T14:29:39;19.20;50.40
21944;DHT22;11136;48.778;9.126;2023-03-01T14:32:17;19.00;50.40
21944;DHT22;11136;48.778;9.126;2023-03-01T14:34:45;18.70;51.10
21944;DHT22;11136;48.778;9.126;2023-03-01T14:37:25;18.50;50.80
21944;DHT22;11136;48.778;9.126;2023-03-01T14:39:52;18.40;51.00
21944;DHT22;11136;48.778;9.126;2023-03-01T14:42:20;18.30;51.30
21944;DHT22;11136;48.778;9.126;2023-03-01T14:44:48;18.20;51.40
21944;DHT22;11136;48.778;9.126;2023-03-01T14:47:25;18.10;51.60
21944;DHT22;11136;48.778;9.126;2023-03-01T14:50:01;18.10;51.60
21944;DHT22;11136;48.778;9.126;2023-03-01T14:52:39;18.10;51.70
21944;DHT22;11136;48.778;9.126;2023-03-01T14:55:13;17.90;51.60
21944;DHT22;11136;48.778;9.126;2023-03-01T14:57:43;17.80;51.70
21944;DHT22;11136;48.778;9.126;2023-03-01T15:00:27;17.70;51.90
21944;DHT22;11136;48.778;9.126;2023-03-01T15:02:56;17.60;51.90
21944;DHT22;11136;48.778;9.126;2023-03-01T15:05:33;17.40;52.10
21944;DHT22;11136;48.778;9.126;2023-03-01T15:08:00;17.40;52.00
21944;DHT22;11136;48.778;9.126;2023-03-01T15:10:29;17.30;52.10
21944;DHT22;11136;48.778;9.126;2023-03-01T15:12:55;17.00;52.20
21944;DHT22;11136;48.778;9.126;2023-03-01T15:15:35;16.80;52.20
21944;DHT22;11136;48.778;9.126;2023-03-01T15:18:03;16.60;52.40
21944;DHT22;11136;48.778;9.126;2023-03-01T15:20:31;16.30;52.60
21944;DHT22;11136;48.778;9.126;2023-03-01T15:23:01;16.10;52.60
21944;DHT22;11136;48.778;9.126;2023-03-01T15:25:29;15.80;52.60
21944;DHT22;11136;48.778;9.126;2023-03-01T15:27:56;15.50;52.80
21944;DHT22;11136;48.778;9.126;2023-03-01T15:30:33;15.30;53.10
21944;DHT22;11136;48.778;9.126;2023-03-01T15:33:27;15.00;53.40
21944;DHT22;11136;48.778;9.126;2023-03-01T15:35:58;14.80;53.80
21944;DHT22;11136;48.778;9.126;2023-03-01T15:38:33;14.50;54.00
21944;DHT22;11136;48.778;9.126;2023-03-01T15:41:04;14.20;54.20
21944;DHT22;11136;48.778;9.126;2023-03-01T15:43:43;14.00;54.50
21944;DHT22;11136;48.778;9.126;2023-03-01T15:48:49;13.60;55.10
21944;DHT22;11136;48.778;9.126;2023-03-01T15:51:17;13.40;55.40
21944;DHT22;11136;48.778;9.126;2023-03-01T15:53:50;13.30;55.70
21944;DHT22;11136;48.778;9.126;2023-03-01T15:56:16;13.20;56.10
21944;DHT22;11136;48.778;9.126;2023-03-01T15:58:41;13.00;56.10
21944;DHT22;11136;48.778;9.126;2023-03-01T16:01:15;12.90;56.40
21944;DHT22;11136;48.778;9.126;2023-03-01T16:03:42;12.80;56.60
21944;DHT22;11136;48.778;9.126;2023-03-01T16:06:12;12.70;56.80
21944;DHT22;11136;48.778;9.126;2023-03-01T16:08:38;12.60;57.00
21944;DHT22;11136;48.778;9.126;2023-03-01T16:11:17;12.50;57.00
21944;DHT22;11136;48.778;9.126;2023-03-01T16:13:43;12.40;57.30
21944;DHT22;11136;48.778;9.126;2023-03-01T16:16:10;12.20;57.30
21944;DHT22;11136;48.778;9.126;2023-03-01T16:18:38;12.10;57.50
21944;DHT22;11136;48.778;9.126;2023-03-01T16:21:04;12.00;57.70
21944;DHT22;11136;48.778;9.126;2023-03-01T16:23:30;12.00;57.90
21944;DHT22;11136;48.778;9.126;2023-03-01T16:25:59;11.90;58.00
21944;DHT22;11136;48.778;9.126;2023-03-01T16:28:25;11.80;58.20
21944;DHT22;11136;48.778;9.126;2023-03-01T16:30:51;11.70;58.40
21944;DHT22;11136;48.778;9.126;2023-03-01T16:33:17;11.70;58.50
21944;DHT22;11136;48.778;9.126;2023-03-01T16:35:43;11.60;58.60
21944;DHT22;11136;48.778;9.126;2023-03-01T16:38:09;11.50;58.70
21944;DHT22;11136;48.778;9.126;2023-03-01T16:40:35;11.40;58.90
21944;DHT22;11136;48.778;9.126;2023-03-01T16:43:01;11.40;59.10
21944;DHT22;11136;48.778;9.126;2023-03-01T16:45:28;11.40;59.30
21944;DHT22;11136;48.778;9.126;2023-03-01T16:47:57;11.30;59.40
21944;DHT22;11136;48.778;9.126;2023-03-01T16:50:24;11.20;59.50
21944;DHT22;11136;48.778;9.126;2023-03-01T16:52:50;11.10;59.60
21944;DHT22;11136;48.778;9.126;2023-03-01T16:55:16;11.10;59.80
21944;DHT22;11136;48.778;9.126;2023-03-01T16:57:42;11.10;60.00
21944;DHT22;11136;48.778;9.126;2023-03-01T17:00:09;11.00;60.80
21944;DHT22;11136;48.778;9.126;2023-03-01T17:02:35;10.90;60.20
21944;DHT22;11136;48.778;9.126;2023-03-01T17:05:01;10.90;61.20
21944;DHT22;11136;48.778;9.126;2023-03-01T17:07:28;10.80;60.50
21944;DHT22;11136;48.778;9.126;2023-03-01T17:09:54;10.80;60.70
21944;DHT22;11136;48.778;9.126;2023-03-01T17:12:19;10.70;60.70
21944;DHT22;11136;48.778;9.126;2023-03-01T17:14:45;10.70;61.00
21944;DHT22;11136;48.778;9.126;2023-03-01T17:17:11;10.60;61.10
21944;DHT22;11136;48.778;9.126;2023-03-01T17:19:37;10.60;61.30
21944;DHT22;11136;48.778;9.126;2023-03-01T17:22:10;10.50;61.40
21944;DHT22;11136;48.778;9.126;2023-03-01T17:24:37;10.50;61.60
21944;DHT22;11136;48.778;9.126;2023-03-01T17:27:04;10.50;61.80
21944;DHT22;11136;48.778;9.126;2023-03-01T17:29:30;10.40;61.90
21944;DHT22;11136;48.778;9.126;2023-03-01T17:31:56;10.30;62.00
21944;DHT22;11136;48.778;9.126;2023-03-01T17:34:22;10.30;62.10
21944;DHT22;11136;48.778;9.126;2023-03-01T17:36:49;10.20;62.20
21944;DHT22;11136;48.778;9.126;2023-03-01T17:39:17;10.20;62.30
21944;DHT22;11136;48.778;9.126;2023-03-01T17:41:44;10.10;62.50
21944;DHT22;11136;48.778;9.126;2023-03-01T17:44:09;10.00;62.70
21944;DHT22;11136;48.778;9.126;2023-03-01T17:46:35;10.00;62.90